Davinopolis, Brazil
Current Conditions -  °F | °C
As of 10:00 AM on Thursday 30 Oct 2014 (Local Time) from SBGO Reporting Station
Broken Clouds Broken Clouds  
Wind Chill: 75°   Ceiling: 10000
Heat Index: 75°   Visibility: 6mi
Dew Point: 64°   Wind: 9mph
Humidity: 69%   Direction: 310°NW
Pressure: 30"   Gusts: NA
Location:  15.98°S, 50.12°W
Report Text: SBGO 301200Z 31008KT 9999 FEW014 SCT015 BKN100 24/18 Q1016
Loading
Personal Weather Stations






























Interactive Weather Map
Tropical Storm Tracking
New forecast layout! Learn more

10-Day Weather Forecast

Advertisements
Track Severe Weather on mobile